Time;durP1;ratioP1;P1;durP2;ratioP2;P2;SDS_P1;SDS_P2;PMS_P1;PMS_P2;Temp;Humidity;BMP_temperature;BMP_pressure;BME280_temperature;BME280_humidity;BME280_pressure;Samples;Min_cycle;Max_cycle;Signal;HPM_P1;HPM_P2
2023/03/04 00:01:58;;;;;;;72.00;34.80;;;;;;;0.90;75.93;100486.55;130233;1256;114658;-68
2023/03/04 00:05:02;;;;;;;72.10;34.00;;;;;;;0.91;75.99;100480.21;130315;1259;114983;-66
2023/03/04 00:08:04;;;;;;;52.70;27.50;;;;;;;0.90;75.97;100479.15;130414;1254;114788;-68
2023/03/04 00:11:06;;;;;;;80.20;35.70;;;;;;;0.90;76.26;100472.48;130324;1254;115161;-65
2023/03/04 00:14:08;;;;;;;75.60;35.00;;;;;;;0.92;76.21;100471.05;130510;1256;114716;-66
2023/03/04 00:17:11;;;;;;;69.60;33.70;;;;;;;0.94;75.89;100467.34;130281;1257;114844;-68
2023/03/04 00:20:13;;;;;;;59.10;29.70;;;;;;;0.94;76.15;100458.20;130132;1256;114776;-67
2023/03/04 00:23:16;;;;;;;66.30;31.20;;;;;;;0.95;76.58;100459.25;130319;1276;114816;-69
2023/03/04 00:26:18;;;;;;;63.30;29.50;;;;;;;0.95;76.19;100457.31;130462;1256;114806;-67
2023/03/04 00:29:21;;;;;;;61.90;30.30;;;;;;;0.95;76.02;100449.58;130335;1256;115259;-68
2023/03/04 00:32:23;;;;;;;59.20;29.50;;;;;;;0.95;76.25;100442.02;130339;1256;115527;-69
2023/03/04 00:35:25;;;;;;;59.10;29.40;;;;;;;0.95;76.25;100436.73;130373;1257;114759;-67
2023/03/04 00:38:27;;;;;;;53.40;27.10;;;;;;;0.95;76.25;100428.66;130378;1256;114786;-68
2023/03/04 00:41:29;;;;;;;54.20;27.10;;;;;;;0.97;76.35;100421.42;129969;1254;114943;-67
2023/03/04 00:44:32;;;;;;;54.80;28.10;;;;;;;0.98;76.02;100417.91;130308;1256;114821;-67
2023/03/04 00:47:34;;;;;;;55.30;29.00;;;;;;;0.99;76.18;100418.77;130564;1256;114834;-67
2023/03/04 00:50:36;;;;;;;46.10;25.40;;;;;;;1.01;75.92;100415.95;130426;1256;115208;-68
2023/03/04 00:53:38;;;;;;;48.30;25.70;;;;;;;1.03;76.28;100410.64;130428;1256;114744;-67
2023/03/04 00:56:41;;;;;;;44.50;25.10;;;;;;;1.04;76.21;100410.81;130255;1256;114745;-68
2023/03/04 00:59:43;;;;;;;45.20;23.50;;;;;;;1.04;76.28;100412.05;130370;1254;114807;-69
2023/03/04 01:02:45;;;;;;;43.70;24.30;;;;;;;1.05;75.98;100408.70;130087;1262;114906;-67
2023/03/04 01:05:47;;;;;;;43.30;21.50;;;;;;;1.06;76.18;100409.58;130312;1256;114780;-66
2023/03/04 01:08:49;;;;;;;40.90;22.00;;;;;;;1.07;76.37;100404.46;130217;1260;115231;-67
2023/03/04 01:11:52;;;;;;;41.70;21.80;;;;;;;1.09;76.45;100397.58;130319;1268;114639;-68
2023/03/04 01:14:54;;;;;;;39.80;20.60;;;;;;;1.10;76.20;100386.32;130259;1254;114801;-66
2023/03/04 01:17:56;;;;;;;44.50;23.00;;;;;;;1.10;76.35;100381.39;130295;1254;114697;-66
2023/03/04 01:20:58;;;;;;;41.60;21.50;;;;;;;1.11;76.21;100374.87;130419;1254;115243;-67
2023/03/04 01:24:01;;;;;;;49.10;23.00;;;;;;;1.10;76.24;100373.30;130175;1254;217749;-67
2023/03/04 01:27:03;;;;;;;45.70;23.80;;;;;;;1.11;76.21;100368.72;130250;1256;114733;-66
2023/03/04 01:30:06;;;;;;;41.90;22.50;;;;;;;1.13;76.44;100368.16;130307;1254;114767;-67
2023/03/04 01:33:08;;;;;;;42.30;20.90;;;;;;;1.14;76.28;100366.05;130305;1276;115348;-68
2023/03/04 01:36:10;;;;;;;40.50;20.90;;;;;;;1.17;76.21;100356.16;130578;1256;115405;-68
2023/03/04 01:39:13;;;;;;;36.20;20.20;;;;;;;1.19;76.64;100344.88;130353;1256;115141;-70
2023/03/04 01:42:20;;;;;;;42.10;21.90;;;;;;;1.21;76.34;100341.35;130170;1254;116396;-67
2023/03/04 01:45:23;;;;;;;37.50;20.90;;;;;;;1.22;76.22;100336.07;130180;1254;114854;-69
2023/03/04 01:48:32;;;;;;;42.10;22.20;;;;;;;1.24;76.29;100326.72;130201;1256;115094;-68
2023/03/04 01:51:34;;;;;;;41.60;22.50;;;;;;;1.24;76.13;100322.33;130261;1256;114808;-68
2023/03/04 01:54:37;;;;;;;43.20;23.40;;;;;;;1.26;76.10;100316.31;130244;1253;114760;-69
2023/03/04 01:57:39;;;;;;;39.80;22.70;;;;;;;1.26;76.10;100312.80;130349;1256;115353;-69
2023/03/04 02:00:42;;;;;;;40.30;24.00;;;;;;;1.26;76.09;100309.64;130237;1254;114706;-68
2023/03/04 02:03:44;;;;;;;42.60;23.80;;;;;;;1.27;75.71;100311.02;130229;1254;114750;-68
2023/03/04 02:06:47;;;;;;;39.10;22.40;;;;;;;1.28;75.95;100312.07;130259;1256;114766;-68
2023/03/04 02:09:49;;;;;;;41.50;22.30;;;;;;;1.30;75.93;100315.41;130270;1256;114753;-66
2023/03/04 02:12:51;;;;;;;41.60;23.00;;;;;;;1.30;75.79;100313.46;130262;1256;115326;-66
2023/03/04 02:15:54;;;;;;;39.10;21.30;;;;;;;1.30;75.41;100315.93;130147;1256;114907;-66
2023/03/04 02:18:56;;;;;;;40.90;22.40;;;;;;;1.32;75.58;100313.96;130454;1254;114745;-68
2023/03/04 02:21:58;;;;;;;44.80;24.70;;;;;;;1.33;75.67;100312.02;130419;1276;114756;-69
2023/03/04 02:25:07;;;;;;;43.40;24.10;;;;;;;1.34;75.96;100317.27;130295;1259;114720;-67
2023/03/04 02:28:10;;;;;;;45.20;23.40;;;;;;;1.35;75.87;100318.14;130480;1257;129012;-67
2023/03/04 02:31:42;;;;;;;43.60;23.60;;;;;;;1.36;75.85;100318.67;130338;1254;114827;-69
2023/03/04 02:34:47;;;;;;;40.10;23.20;;;;;;;1.36;75.59;100319.20;130402;1256;114833;-67
2023/03/04 02:37:49;;;;;;;40.00;23.10;;;;;;;1.36;75.63;100311.46;130210;1253;114785;-67
2023/03/04 02:40:53;;;;;;;37.50;23.20;;;;;;;1.37;75.26;100302.13;130227;1272;114923;-68
2023/03/04 02:43:56;;;;;;;35.00;21.20;;;;;;;1.37;75.23;100295.08;130324;1267;115093;-68
2023/03/04 02:46:58;;;;;;;38.60;22.40;;;;;;;1.37;75.52;100289.80;130235;1276;114744;-68
2023/03/04 02:50:00;;;;;;;37.90;21.30;;;;;;;1.35;75.00;100285.42;130388;1256;114763;-68
2023/03/04 02:53:03;;;;;;;38.50;22.20;;;;;;;1.35;74.87;100283.66;130324;1256;114786;-68
2023/03/04 02:56:06;;;;;;;35.80;20.00;;;;;;;1.37;74.84;100280.30;130285;1253;115849;-66
2023/03/04 02:59:09;;;;;;;35.00;20.30;;;;;;;1.38;75.09;100278.17;130371;1256;115170;-68
2023/03/04 03:02:11;;;;;;;37.90;21.30;;;;;;;1.39;75.03;100274.31;130231;1256;115097;-67
2023/03/04 03:05:14;;;;;;;37.90;20.90;;;;;;;1.38;75.14;100273.60;130352;1254;114714;-68
2023/03/04 03:08:17;;;;;;;37.90;23.20;;;;;;;1.37;75.17;100271.86;130338;1254;115224;-67
2023/03/04 03:11:19;;;;;;;41.00;24.50;;;;;;;1.37;74.63;100267.98;130264;1276;114741;-68
2023/03/04 03:14:21;;;;;;;38.50;23.80;;;;;;;1.38;74.85;100268.33;130306;1256;114831;-67
2023/03/04 03:17:23;;;;;;;38.40;25.10;;;;;;;1.40;74.88;100262.85;130014;1253;114928;-68
2023/03/04 03:20:25;;;;;;;41.40;24.10;;;;;;;1.40;74.60;100266.91;130206;1257;114830;-67
2023/03/04 03:23:27;;;;;;;44.40;24.60;;;;;;;1.40;74.48;100262.31;130335;1254;114711;-69
2023/03/04 03:26:29;;;;;;;37.60;23.60;;;;;;;1.42;74.27;100261.41;130434;1257;128787;-69
2023/03/04 03:29:31;;;;;;;40.00;24.10;;;;;;;1.41;74.54;100260.02;130237;1272;114712;-68
2023/03/04 03:32:34;;;;;;;34.80;21.80;;;;;;;1.40;74.08;100260.20;130329;1256;115175;-67
2023/03/04 03:35:36;;;;;;;36.40;21.80;;;;;;;1.40;74.31;100258.98;129988;1254;114933;-68
2023/03/04 03:38:38;;;;;;;35.90;21.00;;;;;;;1.41;74.21;100263.20;130275;1257;114717;-67
2023/03/04 03:41:41;;;;;;;37.80;22.80;;;;;;;1.42;74.47;100256.65;130308;1256;114756;-66
2023/03/04 03:44:43;;;;;;;42.10;24.40;;;;;;;1.43;74.16;100256.13;130309;1257;114740;-67
2023/03/04 03:47:45;;;;;;;37.20;22.60;;;;;;;1.42;74.02;100252.79;130278;1256;114731;-67
2023/03/04 03:50:47;;;;;;;36.20;22.40;;;;;;;1.42;74.02;100248.91;130326;1254;114734;-66
2023/03/04 03:53:49;;;;;;;40.00;23.80;;;;;;;1.42;74.13;100243.10;130014;1256;114822;-67
2023/03/04 03:56:52;;;;;;;37.80;22.00;;;;;;;1.41;74.20;100240.30;130185;1259;114852;-67
2023/03/04 03:59:54;;;;;;;38.60;22.40;;;;;;;1.43;74.12;100239.56;130344;1256;114795;-68
2023/03/04 04:02:58;;;;;;;42.20;23.00;;;;;;;1.44;74.06;100233.58;130265;1254;114849;-67
2023/03/04 04:06:00;;;;;;;41.00;21.70;;;;;;;1.44;74.04;100231.30;130224;1256;114783;-69
2023/03/04 04:09:02;;;;;;;41.40;22.10;;;;;;;1.45;73.81;100231.45;130204;1257;114728;-68
2023/03/04 04:12:06;;;;;;;42.60;23.20;;;;;;;1.45;73.78;100233.21;130323;1254;114801;-68
2023/03/04 04:15:10;;;;;;;42.50;23.30;;;;;;;1.45;73.73;100229.52;130331;1256;116388;-67
2023/03/04 04:18:13;;;;;;;41.50;23.70;;;;;;;1.45;73.81;100225.83;130428;1256;114847;-67
2023/03/04 04:21:15;;;;;;;41.50;24.90;;;;;;;1.47;73.89;100227.56;130259;1256;114801;-67
2023/03/04 04:24:18;;;;;;;43.90;26.30;;;;;;;1.47;73.77;100227.73;130361;1256;114744;-69
2023/03/04 04:27:21;;;;;;;49.70;27.00;;;;;;;1.46;74.06;100219.13;130014;1254;116052;-69
2023/03/04 04:30:23;;;;;;;52.60;27.10;;;;;;;1.48;73.83;100217.16;130266;1254;128525;-68
2023/03/04 04:33:26;;;;;;;49.10;27.10;;;;;;;1.49;73.54;100209.23;130239;1254;114829;-69
2023/03/04 04:36:31;;;;;;;45.00;26.50;;;;;;;1.48;73.79;100205.55;130455;1254;114673;-67
2023/03/04 04:39:33;;;;;;;46.90;27.70;;;;;;;1.47;73.63;100199.59;130292;1256;114738;-67
2023/03/04 04:42:36;;;;;;;49.50;28.80;;;;;;;1.47;73.72;100196.41;130227;1259;114764;-69
2023/03/04 04:45:38;;;;;;;48.90;27.50;;;;;;;1.49;73.55;100191.81;130279;1266;114801;-67
2023/03/04 04:48:40;;;;;;;48.30;27.80;;;;;;;1.49;73.47;100189.89;130375;1254;114826;-69
2023/03/04 04:51:43;;;;;;;47.00;29.10;;;;;;;1.49;73.56;100183.89;130201;1256;129134;-67
2023/03/04 04:54:45;;;;;;;50.50;30.50;;;;;;;1.49;73.27;100182.48;130295;1254;114724;-67
2023/03/04 04:57:47;;;;;;;52.90;30.30;;;;;;;1.49;73.51;100175.98;130254;1258;114741;-67
2023/03/04 05:00:49;;;;;;;58.60;31.30;;;;;;;1.50;73.91;100174.02;130382;1256;114664;-68
2023/03/04 05:03:54;;;;;;;51.10;29.50;;;;;;;1.50;73.74;100170.48;130106;1260;114837;-67
2023/03/04 05:06:56;;;;;;;53.00;31.30;;;;;;;1.51;73.59;100171.36;130514;1266;115193;-67
2023/03/04 05:09:58;;;;;;;46.70;28.30;;;;;;;1.52;73.22;100166.07;130267;1256;114821;-66
2023/03/04 05:13:00;;;;;;;47.20;28.30;;;;;;;1.54;73.13;100171.50;130323;1256;114734;-67
2023/03/04 05:16:03;;;;;;;40.60;24.30;;;;;;;1.56;73.40;100182.90;130240;1256;115292;-65
2023/03/04 05:19:05;;;;;;;48.50;26.60;;;;;;;1.57;73.14;100182.02;130191;1270;114884;-67
2023/03/04 05:22:08;;;;;;;40.80;24.70;;;;;;;1.58;73.14;100184.27;130353;1257;114703;-67
2023/03/04 05:25:10;;;;;;;35.40;23.00;;;;;;;1.60;73.28;100188.48;130348;1267;114830;-67
2023/03/04 05:28:12;;;;;;;36.70;23.30;;;;;;;1.62;73.53;100180.70;130338;1254;114725;-66
2023/03/04 05:31:16;;;;;;;39.10;23.40;;;;;;;1.63;73.22;100181.39;130116;1253;115234;-67
2023/03/04 05:34:19;;;;;;;36.20;21.30;;;;;;;1.64;73.41;100175.93;130171;1259;115096;-66
2023/03/04 05:37:21;;;;;;;36.50;22.20;;;;;;;1.66;73.43;100177.46;130018;1254;114794;-67
2023/03/04 05:40:24;;;;;;;34.00;21.60;;;;;;;1.68;73.18;100170.41;130344;1257;115207;-66
2023/03/04 05:43:27;;;;;;;33.30;20.90;;;;;;;1.69;73.21;100173.57;130058;1254;114838;-67
2023/03/04 05:46:29;;;;;;;36.20;20.90;;;;;;;1.71;73.24;100169.65;130351;1260;115315;-67
2023/03/04 05:49:32;;;;;;;33.20;20.40;;;;;;;1.73;73.22;100171.21;130218;1260;114720;-67
2023/03/04 05:52:34;;;;;;;32.10;19.80;;;;;;;1.75;73.14;100175.23;130222;1259;114871;-66
2023/03/04 05:55:36;;;;;;;33.20;20.80;;;;;;;1.78;73.23;100175.71;130094;1277;115304;-68
2023/03/04 05:58:38;;;;;;;35.90;21.90;;;;;;;1.79;73.13;100175.70;130303;1277;114824;-68
2023/03/04 06:01:40;;;;;;;39.20;21.10;;;;;;;1.81;72.88;100172.51;130445;1260;114766;-68
2023/03/04 06:04:42;;;;;;;34.20;21.60;;;;;;;1.83;72.75;100180.02;130218;1267;114761;-69
2023/03/04 06:07:45;;;;;;;32.50;19.60;;;;;;;1.88;73.14;100177.86;130207;1260;114740;-69
2023/03/04 06:10:47;;;;;;;37.20;21.20;;;;;;;1.89;72.93;100179.77;130198;1267;114796;-68
2023/03/04 06:13:49;;;;;;;41.50;21.90;;;;;;;1.92;72.98;100177.08;130120;1260;114814;-68
2023/03/04 06:16:52;;;;;;;37.70;22.00;;;;;;;1.95;73.04;100174.40;130234;1270;115183;-69
2023/03/04 06:19:54;;;;;;;36.40;21.30;;;;;;;1.96;72.86;100175.78;130153;1259;115179;-68
2023/03/04 06:22:56;;;;;;;33.50;19.80;;;;;;;1.99;72.79;100180.15;130202;1259;114738;-67
2023/03/04 06:25:59;;;;;;;38.30;22.20;;;;;;;2.00;72.98;100177.48;130024;1254;114885;-67
2023/03/04 06:29:01;;;;;;;32.20;20.20;;;;;;;2.02;73.01;100173.58;130178;1253;114786;-67
2023/03/04 06:32:04;;;;;;;31.90;20.60;;;;;;;2.04;72.71;100176.54;130148;1259;114724;-68
2023/03/04 06:35:07;;;;;;;38.80;21.70;;;;;;;2.07;72.58;100183.18;130343;1254;115811;-70
2023/03/04 06:38:09;;;;;;;38.80;20.00;;;;;;;2.07;72.59;100187.23;130118;1260;114783;-67
2023/03/04 06:41:12;;;;;;;29.80;18.10;;;;;;;2.09;72.49;100183.31;130377;1259;115434;-68
2023/03/04 06:44:15;;;;;;;39.20;22.00;;;;;;;2.10;72.58;100188.23;130168;1262;115407;-72
2023/03/04 06:47:17;;;;;;;33.40;20.10;;;;;;;2.12;72.59;100187.86;130277;1257;114803;-71
2023/03/04 06:50:19;;;;;;;35.30;18.90;;;;;;;2.15;72.30;100192.58;130241;1266;114726;-71
2023/03/04 06:53:22;;;;;;;31.70;19.40;;;;;;;2.16;72.33;100194.48;130258;1266;114780;-72
2023/03/04 06:56:24;;;;;;;29.40;18.20;;;;;;;2.16;72.56;100196.23;130346;1276;115141;-73
2023/03/04 06:59:26;;;;;;;37.00;20.20;;;;;;;2.17;72.52;100196.93;130346;1257;115152;-67
2023/03/04 07:02:28;;;;;;;28.30;18.60;;;;;;;2.19;72.45;100199.53;130314;1267;115223;-70
2023/03/04 07:05:30;;;;;;;32.90;18.80;;;;;;;2.22;72.37;100206.55;130294;1256;114728;-69
2023/03/04 07:08:33;;;;;;;34.90;19.70;;;;;;;2.25;72.44;100200.85;130353;1264;115432;-70
2023/03/04 07:11:35;;;;;;;31.70;17.80;;;;;;;2.26;72.25;100208.23;130374;1258;114703;-68
2023/03/04 07:14:37;;;;;;;33.10;18.00;;;;;;;2.28;72.25;100207.48;130449;1270;127898;-67
2023/03/04 07:17:39;;;;;;;35.20;17.30;;;;;;;2.31;72.48;100208.16;130299;1276;115226;-69
2023/03/04 07:20:41;;;;;;;30.20;18.10;;;;;;;2.34;72.39;100209.67;130379;1276;114834;-70
2023/03/04 07:23:44;;;;;;;33.90;20.90;;;;;;;2.38;72.55;100209.45;130347;1256;114756;-68
2023/03/04 07:26:46;;;;;;;31.20;18.00;;;;;;;2.42;72.37;100212.02;130349;1257;114808;-71
2023/03/04 07:29:48;;;;;;;35.50;16.90;;;;;;;2.46;72.45;100211.06;130170;1259;114728;-69
2023/03/04 07:32:50;;;;;;;30.60;17.20;;;;;;;2.51;72.47;100209.39;130470;1256;115931;-70
2023/03/04 07:35:59;;;;;;;26.90;15.10;;;;;;;2.55;72.65;100207.04;130312;1260;128864;-68
2023/03/04 07:39:02;;;;;;;27.30;17.20;;;;;;;2.60;72.57;100208.53;130265;1260;115176;-71
2023/03/04 07:42:04;;;;;;;33.60;17.70;;;;;;;2.64;72.56;100203.17;130213;1259;114814;-68
2023/03/04 07:45:08;;;;;;;27.90;15.40;;;;;;;2.67;72.57;100201.68;130174;1259;114816;-66
2023/03/04 07:48:10;;;;;;;30.40;17.10;;;;;;;2.73;72.77;100199.64;130162;1260;114728;-68
2023/03/04 07:51:18;;;;;;;28.00;15.40;;;;;;;2.78;72.39;100199.55;130278;1255;114770;-67
2023/03/04 07:54:20;;;;;;;30.50;15.60;;;;;;;2.81;72.73;100193.84;130233;1261;126783;-69
2023/03/04 07:57:23;;;;;;;26.70;15.00;;;;;;;2.88;72.83;100199.52;130268;1266;114756;-68
2023/03/04 08:00:25;;;;;;;26.10;15.00;;;;;;;2.95;72.75;100194.46;130299;1256;115114;-68
2023/03/04 08:03:28;;;;;;;24.10;14.80;;;;;;;3.00;72.76;100189.23;130271;1260;114834;-68
2023/03/04 08:06:30;;;;;;;27.90;16.20;;;;;;;3.02;72.48;100190.43;130359;1256;114697;-68
2023/03/04 08:09:33;;;;;;;26.80;15.00;;;;;;;3.05;72.46;100189.15;130289;1257;114802;-67
2023/03/04 08:12:35;;;;;;;30.70;16.40;;;;;;;3.07;72.44;100188.75;130296;1257;114820;-68
2023/03/04 08:15:41;;;;;;;27.00;16.30;;;;;;;3.09;72.60;100185.17;130325;1260;115429;-69
2023/03/04 08:18:46;;;;;;;31.70;17.40;;;;;;;3.10;72.77;100184.09;130248;1267;115186;-67
2023/03/04 08:21:49;;;;;;;32.70;18.60;;;;;;;3.11;72.66;100177.38;130372;1256;114740;-69
2023/03/04 08:24:51;;;;;;;31.10;19.50;;;;;;;3.11;72.74;100176.48;130198;1260;114870;-68
2023/03/04 08:27:53;;;;;;;32.40;18.60;;;;;;;3.15;73.04;100169.18;130322;1257;114757;-67
2023/03/04 08:30:55;;;;;;;33.60;18.70;;;;;;;3.17;72.85;100167.71;129896;1276;114942;-70
2023/03/04 08:33:57;;;;;;;33.80;19.80;;;;;;;3.19;73.07;100164.48;130229;1260;114711;-67
2023/03/04 08:36:59;;;;;;;32.30;19.50;;;;;;;3.23;73.07;100164.42;130184;1266;114821;-67
2023/03/04 08:40:01;;;;;;;33.00;20.60;;;;;;;3.26;73.11;100159.23;130253;1266;115240;-67
2023/03/04 08:43:03;;;;;;;40.10;24.40;;;;;;;3.30;73.04;100159.31;130291;1256;115355;-67
2023/03/04 08:46:06;;;;;;;36.30;21.70;;;;;;;3.36;73.10;100156.20;130334;1266;115938;-70
2023/03/04 08:49:11;;;;;;;34.70;21.60;;;;;;;3.41;72.96;100157.68;130419;1257;116437;-73
2023/03/04 08:52:13;;;;;;;36.70;22.10;;;;;;;3.45;73.13;100158.28;130331;1276;114699;-71
2023/03/04 08:55:16;;;;;;;40.70;21.40;;;;;;;3.51;72.94;100159.02;130247;1256;115203;-70
2023/03/04 08:58:18;;;;;;;35.90;21.80;;;;;;;3.54;72.92;100159.34;130351;1254;115303;-71
2023/03/04 09:01:21;;;;;;;39.10;21.90;;;;;;;3.57;72.80;100160.69;130419;1254;115266;-70
2023/03/04 09:04:23;;;;;;;33.60;21.90;;;;;;;3.58;72.74;100162.92;130296;1260;114802;-70
2023/03/04 09:07:25;;;;;;;31.40;19.40;;;;;;;3.61;72.92;100157.41;130258;1260;114721;-68
2023/03/04 09:10:27;;;;;;;33.20;19.30;;;;;;;3.67;72.72;100149.48;130143;1263;114789;-71
2023/03/04 09:13:30;;;;;;;29.30;16.80;;;;;;;3.73;72.97;100150.58;130405;1259;114792;-69
2023/03/04 09:16:32;;;;;;;26.30;16.80;;;;;;;3.77;72.67;100153.85;130359;1254;114795;-71
2023/03/04 09:19:34;;;;;;;29.50;16.40;;;;;;;3.81;72.63;100153.76;130241;1276;114868;-67
2023/03/04 09:22:37;;;;;;;31.90;17.10;;;;;;;3.84;72.61;100158.44;130354;1266;114679;-72
2023/03/04 09:25:41;;;;;;;33.60;17.90;;;;;;;3.88;72.77;100157.64;130402;1276;114774;-70
2023/03/04 09:28:43;;;;;;;27.90;15.30;;;;;;;3.93;72.67;100157.69;130499;1266;114743;-69
2023/03/04 09:31:45;;;;;;;29.30;17.70;;;;;;;3.98;72.75;100155.98;130229;1254;114748;-67
2023/03/04 09:34:48;;;;;;;29.10;15.10;;;;;;;4.02;72.49;100160.13;130335;1254;114745;-68
2023/03/04 09:37:51;;;;;;;26.60;14.00;;;;;;;4.05;72.67;100156.86;130289;1258;128874;-70
2023/03/04 09:40:53;;;;;;;32.80;16.90;;;;;;;4.11;72.58;100156.20;129822;1277;115333;-66
2023/03/04 09:43:56;;;;;;;30.90;15.00;;;;;;;4.14;72.50;100156.50;130171;1276;114782;-69
2023/03/04 09:47:02;;;;;;;30.90;15.80;;;;;;;4.18;72.70;100154.42;130192;1257;114782;-68
2023/03/04 09:50:08;;;;;;;26.30;15.00;;;;;;;4.27;72.72;100150.84;129967;1273;114821;-65
2023/03/04 09:53:24;;;;;;;26.80;15.20;;;;;;;4.38;72.98;100149.84;130229;1254;116534;-69
2023/03/04 09:56:27;;;;;;;24.20;14.30;;;;;;;4.49;72.97;100144.08;130168;1260;128242;-68
2023/03/04 09:59:38;;;;;;;25.90;14.40;;;;;;;4.54;72.97;100141.11;130154;1261;115000;-68
2023/03/04 10:03:05;;;;;;;26.70;14.70;;;;;;;4.60;73.03;100138.30;130023;1264;114933;-67
2023/03/04 10:06:11;;;;;;;27.20;15.80;;;;;;;4.63;73.09;100134.49;130218;1274;114738;-63
2023/03/04 10:09:18;;;;;;;29.40;17.60;;;;;;;4.69;73.20;100128.67;129874;1263;115182;-68
2023/03/04 10:12:24;;;;;;;29.70;20.90;;;;;;;4.72;73.33;100126.29;130237;1267;128799;-66
2023/03/04 10:15:35;;;;;;;24.30;15.40;;;;;;;4.79;73.34;100126.27;130303;1276;115154;-68
2023/03/04 10:19:12;;;;;;;22.60;14.20;;;;;;;4.85;73.35;100119.55;129868;1264;115087;-66
2023/03/04 10:22:35;;;;;;;34.20;18.60;;;;;;;4.95;73.62;100111.82;129846;1263;114904;-66
2023/03/04 10:25:42;;;;;;;27.60;13.90;;;;;;;5.06;73.52;100109.90;129881;1261;114752;-66
2023/03/04 10:28:45;;;;;;;32.50;15.80;;;;;;;5.12;73.11;100109.92;129915;1273;127997;-66
2023/03/04 10:31:48;;;;;;;24.90;14.30;;;;;;;5.19;73.37;100103.69;130181;1267;115165;-66
2023/03/04 10:34:50;;;;;;;21.70;14.20;;;;;;;5.30;73.20;100099.27;130182;1260;115179;-66
2023/03/04 10:37:52;;;;;;;25.00;13.70;;;;;;;5.39;73.20;100098.64;130289;1256;115222;-67
2023/03/04 10:40:57;;;;;;;30.60;15.70;;;;;;;5.45;72.90;100100.75;130000;1263;114932;-67
2023/03/04 10:44:08;;;;;;;21.10;14.00;;;;;;;5.48;72.83;100093.38;129986;1260;114947;-69
2023/03/04 10:47:13;;;;;;;25.00;13.30;;;;;;;5.52;72.68;100092.19;130025;1257;128725;-68
2023/03/04 10:50:27;;;;;;;26.00;12.80;;;;;;;5.58;72.69;100082.44;130307;1274;116509;-67
2023/03/04 10:53:37;;;;;;;36.60;18.90;;;;;;;5.64;72.41;100079.25;130178;1260;114910;-67
2023/03/04 10:56:44;;;;;;;43.60;20.40;;;;;;;5.67;72.46;100074.90;129856;1254;114827;-67
2023/03/04 10:59:59;;;;;;;23.20;12.60;;;;;;;5.72;72.37;100071.88;130204;1257;114827;-68
2023/03/04 11:03:20;;;;;;;24.50;12.90;;;;;;;5.74;72.21;100073.77;129936;1257;128031;-68
2023/03/04 11:06:22;;;;;;;20.30;12.10;;;;;;;5.78;72.17;100075.24;130052;1257;115180;-67
2023/03/04 11:09:27;;;;;;;22.00;14.10;;;;;;;5.82;72.02;100071.92;130204;1254;114824;-67
2023/03/04 11:12:33;;;;;;;;;;;;;;;5.84;71.99;100074.17;130164;1267;114705;-67
2023/03/04 11:15:58;;;;;;;16.10;10.90;;;;;;;5.83;71.68;100072.05;130181;1258;115103;-66
2023/03/04 11:19:12;;;;;;;17.80;11.90;;;;;;;5.81;71.71;100068.77;130236;1276;129605;-65
2023/03/04 11:22:16;;;;;;;32.70;17.60;;;;;;;5.83;71.67;100071.37;129910;1275;116349;-65
2023/03/04 11:25:27;;;;;;;23.90;13.30;;;;;;;5.85;71.52;100071.30;130457;1255;115201;-64
2023/03/04 11:28:41;;;;;;;22.00;12.20;;;;;;;5.85;71.38;100070.03;130231;1267;114730;-68
2023/03/04 11:31:51;;;;;;;27.60;16.50;;;;;;;5.80;71.38;100070.92;129890;1271;116337;-65
2023/03/04 11:35:06;;;;;;;37.50;20.30;;;;;;;5.78;71.62;100066.92;129943;1254;127939;-67
2023/03/04 11:38:16;;;;;;;20.70;13.60;;;;;;;5.80;71.82;100067.56;129960;1260;115257;-66
2023/03/04 11:41:24;;;;;;;19.00;12.30;;;;;;;5.82;71.88;100060.77;130274;1276;114655;-66
2023/03/04 11:44:26;;;;;;;20.20;12.80;;;;;;;5.84;71.79;100061.05;130097;1262;114958;-65
2023/03/04 11:48:01;;;;;;;27.90;15.70;;;;;;;5.91;71.77;100062.38;130211;1267;114699;-65
2023/03/04 11:51:23;;;;;;;21.90;13.50;;;;;;;6.05;71.73;100050.06;129647;1276;127748;-66
2023/03/04 11:54:59;;;;;;;22.20;13.50;;;;;;;6.16;71.32;100043.66;129766;1263;115618;-64
2023/03/04 11:58:04;;;;;;;;;;;;;;;6.31;71.25;100043.14;129868;1275;114997;-65
2023/03/04 12:01:08;;;;;;;30.10;16.80;;;;;;;6.46;71.29;100045.27;129898;1263;114930;-65
2023/03/04 12:04:21;;;;;;;21.60;12.80;;;;;;;6.57;70.88;100040.39;129697;1267;116393;-65
2023/03/04 12:07:43;;;;;;;17.60;10.90;;;;;;;6.65;70.95;100037.96;129725;1264;127868;-62
2023/03/04 12:11:05;;;;;;;20.40;14.90;;;;;;;6.75;70.89;100037.08;129842;1264;114990;-64
2023/03/04 12:14:10;;;;;;;20.20;12.50;;;;;;;6.87;70.86;100032.71;129506;1264;115005;-63
2023/03/04 12:17:42;;;;;;;16.00;10.60;;;;;;;7.01;70.60;100024.02;129360;1260;114925;-63
2023/03/04 12:20:50;;;;;;;17.40;10.30;;;;;;;7.07;70.10;100022.88;129496;1267;114837;-66
2023/03/04 12:24:14;;;;;;;13.50;9.40;;;;;;;7.08;69.84;100023.02;129627;1277;127832;-65
2023/03/04 12:27:41;;;;;;;12.90;9.00;;;;;;;7.08;70.02;100015.39;129650;1254;115179;-67
2023/03/04 12:31:25;;;;;;;16.30;9.60;;;;;;;7.19;70.17;100021.55;129996;1258;114811;-67
2023/03/04 12:34:45;;;;;;;13.80;8.90;;;;;;;7.35;69.89;100010.60;129498;1267;115189;-66
2023/03/04 12:38:09;;;;;;;12.70;8.40;;;;;;;7.51;69.75;100003.73;129763;1264;115154;-64
2023/03/04 12:41:32;;;;;;;15.40;9.60;;;;;;;7.70;69.47;100008.09;129467;1267;127782;-63
2023/03/04 12:44:46;;;;;;;26.20;16.00;;;;;;;7.79;69.63;100010.18;129467;1267;115628;-66
2023/03/04 12:48:18;;;;;;;18.70;12.80;;;;;;;7.83;69.45;100007.17;129798;1260;114923;-65
2023/03/04 12:51:43;;;;;;;14.30;9.50;;;;;;;7.91;69.70;100002.90;129648;1267;114802;-64
2023/03/04 12:54:49;;;;;;;16.30;11.70;;;;;;;7.96;69.54;100000.40;129633;1266;114766;-62
2023/03/04 12:57:54;;;;;;;14.60;10.10;;;;;;;7.95;70.10;99999.71;129710;1266;128849;-64
2023/03/04 13:01:11;;;;;;;15.30;10.00;;;;;;;7.98;69.59;100002.98;129639;1260;115302;-63
2023/03/04 13:04:22;;;;;;;17.80;9.60;;;;;;;7.93;69.30;99998.39;129805;1277;114837;-65
2023/03/04 13:07:45;;;;;;;13.00;8.70;;;;;;;7.90;69.14;99997.63;129668;1266;114898;-65
2023/03/04 13:10:49;;;;;;;12.80;8.60;;;;;;;7.83;69.14;99998.64;129669;1257;114800;-64
2023/03/04 13:14:13;;;;;;;13.00;9.40;;;;;;;7.73;69.21;100006.17;130344;1257;128143;-68
2023/03/04 13:17:39;;;;;;;13.30;10.00;;;;;;;7.61;69.40;100003.84;129946;1264;115173;-64
2023/03/04 13:20:41;;;;;;;14.90;9.70;;;;;;;7.62;70.05;99997.92;130269;1276;114730;-64
2023/03/04 13:23:44;;;;;;;12.50;9.30;;;;;;;7.62;70.17;99997.37;130132;1270;190105;-65
2023/03/04 13:26:46;;;;;;;14.20;9.50;;;;;;;7.64;70.04;99994.83;130199;1254;114812;-64
2023/03/04 13:29:48;;;;;;;12.20;9.50;;;;;;;7.70;70.09;99994.20;130375;1257;115097;-65
2023/03/04 13:32:50;;;;;;;14.30;9.70;;;;;;;7.79;70.18;99989.04;130248;1276;128581;-63
2023/03/04 13:35:56;;;;;;;12.20;9.10;;;;;;;7.80;69.60;99983.11;130198;1257;114799;-64
2023/03/04 13:39:23;;;;;;;10.80;7.70;;;;;;;7.76;69.81;99983.11;130204;1267;114718;-65
2023/03/04 13:42:41;;;;;;;10.10;7.00;;;;;;;7.86;70.01;99982.88;130175;1270;114754;-64
2023/03/04 13:45:43;;;;;;;11.40;8.00;;;;;;;7.98;69.61;99981.48;130364;1257;114784;-68
2023/03/04 13:48:51;;;;;;;10.80;7.00;;;;;;;8.05;69.69;99985.23;130358;1258;114718;-64
2023/03/04 13:51:53;;;;;;;9.90;6.70;;;;;;;8.11;69.50;99982.48;130365;1258;114744;-68
2023/03/04 13:55:33;;;;;;;10.00;6.70;;;;;;;8.10;68.92;99978.79;130295;1259;114726;-66
2023/03/04 13:58:35;;;;;;;9.60;7.20;;;;;;;8.08;68.92;99976.75;130067;1257;116182;-66